createdAt,value
2022-11-03T17:27:32.819Z,99957.80
2022-11-03T17:28:33.022Z,99956.45
2022-11-03T17:29:33.389Z,99954.34
2022-11-03T17:30:33.641Z,99953.45
2022-11-03T17:31:34.470Z,99951.33
2022-11-03T17:32:35.028Z,99949.09
2022-11-03T17:33:36.534Z,99947.38
2022-11-03T17:34:35.843Z,99945.78
2022-11-03T17:35:40.157Z,99943.88
2022-11-03T17:36:36.264Z,99941.75
2022-11-03T17:37:38.552Z,99939.97
2022-11-03T17:38:37.281Z,99937.82
2022-11-03T17:39:39.664Z,99935.80
2022-11-03T17:40:38.068Z,99933.64
2022-11-03T17:41:38.288Z,99932.05
2022-11-03T17:42:41.138Z,99930.45
2022-11-03T17:43:38.841Z,99928.47
2022-11-03T17:44:38.995Z,99927.04
2022-11-03T17:45:40.050Z,99925.27
2022-11-03T17:46:40.621Z,99923.58
2022-11-03T17:47:02.143Z,99910.45
2022-11-03T17:48:01.119Z,99910.11
2022-11-03T17:49:02.069Z,99908.69
2022-11-03T17:50:02.365Z,99907.84
2022-11-03T17:51:03.325Z,99906.90
2022-11-03T17:52:04.284Z,99905.77
2022-11-03T17:53:04.954Z,99904.83
2022-11-03T17:54:04.709Z,99903.55
2022-11-03T17:55:04.978Z,99902.74
2022-11-03T17:56:35.479Z,99901.04
2022-11-03T17:57:05.961Z,99900.23
2022-11-03T17:58:06.747Z,99898.58
2022-11-03T17:59:07.178Z,99897.55
2022-11-03T18:00:08.227Z,99896.12
2022-11-03T18:01:09.131Z,99895.39
2022-11-03T18:02:09.834Z,99893.53
2022-11-03T18:03:12.682Z,99892.43
2022-11-03T18:04:11.102Z,99891.33
2022-11-03T18:05:15.295Z,99890.27
2022-11-03T18:06:11.862Z,99888.99
2022-11-03T18:07:12.836Z,99887.72
2022-11-03T18:08:13.497Z,99885.91
2022-11-03T18:09:14.199Z,99884.97
2022-11-03T18:09:28.566Z,99872.66
2022-11-03T18:10:29.314Z,99871.98
2022-11-03T18:11:29.742Z,99870.80
2022-11-03T18:12:30.492Z,99870.05
2022-11-03T18:13:34.192Z,99869.72
2022-11-03T18:14:31.350Z,99869.16
2022-11-03T18:15:31.767Z,99868.07
2022-11-03T18:16:34.793Z,99867.39
2022-11-03T18:17:33.772Z,99866.47
2022-11-03T18:18:34.199Z,99865.97
2022-11-03T18:19:34.743Z,99865.34
2022-11-03T18:20:36.598Z,99865.09
2022-11-03T18:21:36.904Z,99865.18
2022-11-03T18:22:39.092Z,99864.72
2022-11-03T18:23:36.313Z,99864.81
2022-11-03T18:24:37.236Z,99864.06
2022-11-03T18:25:38.029Z,99863.47
2022-11-03T18:26:38.244Z,99862.17
2022-11-03T18:27:48.277Z,99862.89
2022-11-03T18:28:48.523Z,99861.12
2022-11-03T18:29:49.382Z,99859.94
2022-11-03T18:30:50.075Z,99858.83
2022-11-03T18:31:50.877Z,99857.44
2022-11-03T18:32:50.889Z,99855.48
2022-11-03T18:33:51.017Z,99853.54
2022-11-03T18:34:51.483Z,99851.25
2022-11-03T18:35:52.266Z,99849.39
2022-11-03T18:36:53.356Z,99846.86
2022-11-03T18:37:53.941Z,99844.71
2022-11-03T18:39:00.945Z,99842.52
2022-11-03T18:39:54.660Z,99840.39
2022-11-03T18:40:54.883Z,99838.70
2022-11-03T18:41:55.746Z,99836.20
2022-11-03T18:42:56.519Z,99834.16
2022-11-03T18:43:57.367Z,99832.17
2022-11-03T18:45:03.282Z,99830.00
2022-11-03T18:46:07.171Z,99827.08
2022-11-03T18:46:59.447Z,99823.80
2022-11-03T18:48:00.226Z,99820.05
2022-11-03T18:49:00.406Z,99817.33
2022-11-03T18:50:02.207Z,99814.20
2022-11-03T18:50:28.763Z,99765.56
2022-11-03T18:51:26.007Z,99765.66
2022-11-03T18:52:26.127Z,99764.77
2022-11-03T18:53:28.672Z,99764.59
2022-11-03T18:54:29.470Z,99763.77
2022-11-03T18:55:27.512Z,99763.77
2022-11-03T18:56:27.706Z,99763.52
2022-11-03T18:57:28.525Z,99763.30
2022-11-03T18:58:29.407Z,99763.23
2022-11-03T18:59:32.862Z,99763.83
2022-11-03T19:00:30.609Z,99764.42
2022-11-03T19:01:33.879Z,99765.73
2022-11-03T19:02:32.364Z,99766.67
2022-11-03T19:03:33.091Z,99767.19
2022-11-03T19:04:34.013Z,99767.84
2022-11-03T19:05:34.644Z,99768.73
2022-11-03T19:06:34.870Z,99769.92
2022-11-03T19:07:34.995Z,99771.41
2022-11-03T19:08:35.460Z,99772.59
2022-11-03T19:09:35.549Z,99774.04
2022-11-03T19:10:36.178Z,99776.02
2022-11-03T19:11:36.956Z,99777.47
2022-11-03T19:12:39.136Z,99777.98
2022-11-03T19:13:40.604Z,99779.30
2022-11-03T19:13:57.311Z,99796.64
2022-11-03T19:14:57.706Z,99796.42
2022-11-03T19:15:59.474Z,99796.09
2022-11-03T19:17:21.815Z,99795.41
2022-11-03T19:18:01.572Z,99794.48
2022-11-03T19:18:59.047Z,99794.83
2022-11-03T19:19:59.957Z,99794.32
2022-11-03T19:21:01.307Z,99794.16
2022-11-03T19:22:00.221Z,99793.73
2022-11-03T19:23:01.037Z,99793.06
2022-11-03T19:24:01.112Z,99792.55
2022-11-03T19:25:01.584Z,99792.17
2022-11-03T19:26:02.279Z,99791.50
2022-11-03T19:27:02.779Z,99790.41
2022-11-03T19:28:05.452Z,99789.56
2022-11-03T19:29:04.598Z,99788.55
2022-11-03T19:30:04.359Z,99787.53
2022-11-03T19:31:05.329Z,99787.20
2022-11-03T19:32:05.693Z,99786.42
2022-11-03T19:33:06.374Z,99785.08
2022-11-03T19:34:06.855Z,99784.06
2022-11-03T19:35:08.361Z,99782.92
2022-11-03T19:36:07.373Z,99781.23
2022-11-03T19:37:07.800Z,99779.80
2022-11-03T19:38:09.567Z,99778.45
2022-11-03T19:38:18.527Z,99764.42
2022-11-03T19:39:19.275Z,99763.92
2022-11-03T19:40:19.888Z,99763.25
2022-11-03T19:41:20.875Z,99763.66
2022-11-03T19:42:22.891Z,99763.16
2022-11-03T19:43:22.910Z,99762.48
2022-11-03T19:44:24.962Z,99761.73
2022-11-03T19:45:24.414Z,99761.73
2022-11-03T19:46:25.282Z,99761.34
2022-11-03T19:47:28.400Z,99760.59
2022-11-03T19:48:26.432Z,99759.66
2022-11-03T19:49:26.310Z,99759.50
2022-11-03T19:50:26.368Z,99758.66
2022-11-03T19:51:26.667Z,99758.31
2022-11-03T19:52:26.836Z,99757.64
2022-11-03T19:53:27.198Z,99757.47
2022-11-03T19:54:27.715Z,99756.97
2022-11-03T19:55:28.276Z,99756.70
2022-11-03T19:56:28.839Z,99756.61
2022-11-03T19:57:29.221Z,99756.11
2022-11-03T19:58:29.363Z,99755.59
2022-11-03T19:59:30.053Z,99755.43
2022-11-03T20:00:30.936Z,99755.19
2022-11-03T20:01:30.998Z,99754.44
2022-11-03T20:02:31.734Z,99754.14
2022-11-03T20:03:31.741Z,99753.41
2022-11-03T20:04:33.101Z,99753.03
2022-11-03T20:05:33.745Z,99752.84
2022-11-03T20:06:33.925Z,99752.39
2022-11-03T20:06:44.657Z,99762.95
2022-11-03T20:07:44.473Z,99762.44
2022-11-03T20:08:46.383Z,99761.52
2022-11-03T20:09:46.952Z,99761.10
2022-11-03T20:10:47.336Z,99760.69
2022-11-03T20:11:46.834Z,99760.73
2022-11-03T20:12:47.314Z,99760.10
2022-11-03T20:13:48.926Z,99759.10
2022-11-03T20:14:49.204Z,99758.30
2022-11-03T20:15:49.907Z,99757.89
2022-11-03T20:16:49.776Z,99756.89
2022-11-03T20:17:51.508Z,99756.43
2022-11-03T20:18:51.651Z,99756.19
2022-11-03T20:19:51.124Z,99755.60
2022-11-03T20:20:51.827Z,99755.22
2022-11-03T20:21:52.709Z,99754.80
2022-11-03T20:22:54.449Z,99755.22
2022-11-03T20:23:54.106Z,99755.05
2022-11-03T20:24:54.156Z,99754.71
2022-11-03T20:25:54.349Z,99755.27
2022-11-03T20:26:03.476Z,99770.73
2022-11-03T20:27:04.335Z,99770.91
2022-11-03T20:28:06.400Z,99769.55
2022-11-03T20:29:06.668Z,99768.70
2022-11-03T20:30:07.000Z,99768.54
2022-11-03T20:31:07.700Z,99767.98
2022-11-03T20:32:07.701Z,99768.33
2022-11-03T20:33:08.116Z,99768.92
2022-11-03T20:34:08.774Z,99771.29
2022-11-03T20:35:09.548Z,99773.58
2022-11-03T20:36:11.288Z,99776.61
2022-11-03T20:37:11.069Z,99780.31
2022-11-03T20:38:12.243Z,99783.98
2022-11-03T20:39:12.794Z,99786.72
2022-11-03T20:40:13.497Z,99789.31
2022-11-03T20:41:14.081Z,99792.05
2022-11-03T20:42:18.612Z,99794.90
2022-11-03T20:43:15.123Z,99797.23
2022-11-03T20:44:14.490Z,99799.77
2022-11-03T20:45:14.956Z,99801.19
2022-11-03T20:46:16.611Z,99802.67
2022-11-03T20:47:16.307Z,99803.03
2022-11-03T20:48:16.615Z,99803.94
2022-11-03T20:48:27.860Z,99816.30
2022-11-03T20:49:27.111Z,99816.13
2022-11-03T20:50:28.921Z,99814.20
2022-11-03T20:51:28.250Z,99812.80
2022-11-03T20:52:29.957Z,99810.95
2022-11-03T20:53:31.821Z,99809.70
2022-11-03T20:54:29.884Z,99808.47
2022-11-03T20:55:29.924Z,99807.04
2022-11-03T20:56:30.125Z,99805.78
2022-11-03T20:57:31.216Z,99804.35
2022-11-03T20:58:32.185Z,99803.30
2022-11-03T20:59:33.328Z,99802.37
2022-11-03T21:00:32.909Z,99801.74
2022-11-03T21:01:33.490Z,99801.33
2022-11-03T21:02:33.959Z,99801.42
2022-11-03T21:04:34.600Z,99800.97
2022-11-03T21:05:36.569Z,99801.19
2022-11-03T21:06:36.315Z,99802.13
2022-11-03T21:07:37.383Z,99802.64
2022-11-03T21:08:38.213Z,99803.20
2022-11-03T21:09:37.965Z,99803.25
2022-11-03T21:10:38.109Z,99803.77
2022-11-03T21:11:39.150Z,99804.48
2022-11-03T21:12:39.816Z,99805.01
2022-11-03T21:12:52.120Z,99821.08
2022-11-03T21:13:52.291Z,99820.91
2022-11-03T21:14:52.448Z,99820.56
2022-11-03T21:16:22.484Z,99820.35
2022-11-03T21:16:53.541Z,99820.86
2022-11-03T21:17:53.626Z,99821.62
2022-11-03T21:18:55.430Z,99823.23
2022-11-03T21:19:54.843Z,99824.47
2022-11-03T21:20:56.562Z,99826.49
2022-11-03T21:21:56.689Z,99828.44
2022-11-03T21:22:56.138Z,99830.22
2022-11-03T21:23:56.841Z,99831.83
2022-11-03T21:24:57.469Z,99833.35
2022-11-03T21:25:57.662Z,99835.20
2022-11-03T21:26:58.762Z,99837.41
2022-11-03T21:27:59.430Z,99839.94
2022-11-03T21:29:00.047Z,99841.80
2022-11-03T21:30:00.594Z,99843.44
2022-11-03T21:30:59.562Z,99844.55
2022-11-03T21:31:59.944Z,99846.23
2022-11-03T21:33:00.696Z,99847.42
2022-11-03T21:34:00.976Z,99848.73
2022-11-03T21:35:01.094Z,99849.76
2022-11-03T21:36:01.185Z,99850.89
2022-11-03T21:36:15.174Z,99884.13
2022-11-03T21:37:16.026Z,99884.09
2022-11-03T21:38:17.999Z,99883.23
2022-11-03T21:39:17.598Z,99883.58
2022-11-03T21:40:19.365Z,99884.01
2022-11-03T21:41:19.340Z,99884.52
2022-11-03T21:42:19.924Z,99884.94
2022-11-03T21:43:20.092Z,99885.95
2022-11-03T21:44:20.862Z,99886.00
2022-11-03T21:45:22.537Z,99886.84
2022-11-03T21:46:22.031Z,99886.94
2022-11-03T21:47:22.352Z,99887.03
2022-11-03T21:48:23.642Z,99887.36
2022-11-03T21:49:23.780Z,99887.88
2022-11-03T21:50:25.647Z,99887.83
2022-11-03T21:51:26.332Z,99888.16
2022-11-03T21:52:26.465Z,99888.72
2022-11-03T21:53:26.821Z,99889.39
2022-11-03T21:54:27.496Z,99890.65
2022-11-03T21:55:27.485Z,99892.08
2022-11-03T21:56:28.250Z,99892.97
2022-11-03T21:57:29.143Z,99893.72
2022-11-03T21:58:30.138Z,99894.81
2022-11-03T21:59:30.612Z,99896.63
2022-11-03T22:00:31.908Z,99899.06
2022-11-03T22:01:31.435Z,99901.51
2022-11-03T22:02:31.447Z,99903.95
2022-11-03T22:03:31.479Z,99906.70
2022-11-03T22:03:41.384Z,99960.83
2022-11-03T22:04:42.000Z,99960.83
2022-11-03T22:05:42.032Z,99959.98
2022-11-03T22:06:44.060Z,99959.48
2022-11-03T22:07:43.531Z,99958.63
2022-11-03T22:08:43.633Z,99957.70
2022-11-03T22:09:44.271Z,99956.70
2022-11-03T22:10:44.848Z,99954.84
2022-11-03T22:11:45.442Z,99953.16
2022-11-03T22:12:47.273Z,99950.95
2022-11-03T22:13:47.675Z,99948.76
2022-11-03T22:14:47.976Z,99946.64
2022-11-03T22:15:47.971Z,99944.62
2022-11-03T22:16:48.007Z,99943.14
2022-11-03T22:17:48.762Z,99941.45
2022-11-03T22:18:49.093Z,99940.18
2022-11-03T22:19:49.189Z,99938.33
2022-11-03T22:20:50.909Z,99937.05
2022-11-03T22:21:50.058Z,99935.91
2022-11-03T22:22:51.159Z,99934.98
2022-11-03T22:23:51.781Z,99934.89
2022-11-03T22:24:51.805Z,99934.97
2022-11-03T22:25:52.697Z,99934.84
2022-11-03T22:26:03.093Z,99940.86
2022-11-03T22:27:03.318Z,99941.20
2022-11-03T22:28:06.090Z,99940.14
2022-11-03T22:29:04.603Z,99939.80
2022-11-03T22:30:04.981Z,99939.73
2022-11-03T22:31:05.907Z,99941.08
2022-11-03T22:32:06.987Z,99942.51
2022-11-03T22:33:07.947Z,99944.24
2022-11-03T22:34:08.184Z,99945.00
2022-11-03T22:35:09.310Z,99946.00
2022-11-03T22:36:09.592Z,99946.03
2022-11-03T22:37:10.184Z,99945.51
2022-11-03T22:38:11.147Z,99943.09
2022-11-03T22:39:10.837Z,99941.50
2022-11-03T22:40:11.556Z,99937.89
2022-11-03T22:41:11.947Z,99934.45
2022-11-03T22:42:13.063Z,99931.50
2022-11-03T22:43:13.766Z,99928.39
2022-11-03T22:43:22.938Z,99888.92
2022-11-03T22:44:24.534Z,99888.50
2022-11-03T22:45:25.388Z,99888.41
2022-11-03T22:46:25.924Z,99887.39
2022-11-03T22:47:26.706Z,99886.05
2022-11-03T22:48:26.255Z,99885.20
2022-11-03T22:49:26.921Z,99883.77
2022-11-03T22:50:28.751Z,99882.00
2022-11-03T22:51:28.345Z,99879.89
2022-11-03T22:52:30.334Z,99877.02
2022-11-03T22:53:29.881Z,99874.73
2022-11-03T22:54:31.781Z,99873.42
2022-11-03T22:55:32.420Z,99872.15
2022-11-03T22:56:31.925Z,99871.37
2022-11-03T22:57:33.548Z,99871.80
2022-11-03T22:58:34.279Z,99871.29
2022-11-03T22:59:34.815Z,99871.58
2022-11-03T23:00:34.090Z,99872.00
2022-11-03T23:01:35.515Z,99872.55
2022-11-03T23:02:34.597Z,99873.13
2022-11-03T23:03:35.135Z,99873.89
2022-11-03T23:04:35.860Z,99874.81
2022-11-03T23:04:44.649Z,99891.55
2022-11-03T23:05:46.522Z,99891.14
2022-11-03T23:06:46.232Z,99890.30
2022-11-03T23:07:46.736Z,99889.95
2022-11-03T23:08:47.268Z,99889.38
2022-11-03T23:09:48.167Z,99889.30
2022-11-03T23:10:49.925Z,99888.66
2022-11-03T23:11:50.553Z,99888.03
2022-11-03T23:12:51.049Z,99887.78
2022-11-03T23:13:51.347Z,99886.41
2022-11-03T23:14:52.374Z,99885.74
2022-11-03T23:15:51.895Z,99885.28
2022-11-03T23:16:53.484Z,99884.88
2022-11-03T23:17:52.758Z,99885.94
2022-11-03T23:18:54.407Z,99886.41
2022-11-03T23:19:54.324Z,99887.61
2022-11-03T23:20:54.773Z,99888.67
2022-11-03T23:21:54.949Z,99889.83
2022-11-03T23:22:55.601Z,99891.14
2022-11-03T23:23:57.433Z,99892.84
2022-11-03T23:24:56.266Z,99893.56
2022-11-03T23:25:57.329Z,99894.59
2022-11-03T23:26:57.435Z,99895.82
2022-11-03T23:27:56.650Z,99896.44
2022-11-03T23:28:57.101Z,99897.83
2022-11-03T23:29:06.870Z,99935.23
2022-11-03T23:30:06.786Z,99935.05
2022-11-03T23:31:07.807Z,99934.04
2022-11-03T23:32:09.445Z,99934.34
2022-11-03T23:33:10.558Z,99934.73
2022-11-03T23:34:10.326Z,99934.27
2022-11-03T23:35:11.203Z,99934.54
2022-11-03T23:36:13.106Z,99934.66
2022-11-03T23:37:13.581Z,99935.55
2022-11-03T23:38:14.293Z,99936.12
2022-11-03T23:39:15.148Z,99936.55
2022-11-03T23:40:17.308Z,99936.88
2022-11-03T23:41:14.797Z,99937.97
2022-11-03T23:42:16.806Z,99938.69
2022-11-03T23:43:17.361Z,99939.32
2022-11-03T23:44:17.995Z,99940.34
2022-11-03T23:45:17.855Z,99940.26
2022-11-03T23:46:19.424Z,99940.69
2022-11-03T23:47:18.946Z,99942.13
2022-11-03T23:48:20.631Z,99943.02
2022-11-03T23:49:20.778Z,99944.05
2022-11-03T23:50:20.728Z,99945.11
2022-11-03T23:50:29.370Z,99968.66
2022-11-03T23:51:30.892Z,99968.33
2022-11-03T23:52:31.336Z,99967.64
2022-11-03T23:53:32.102Z,99966.89
2022-11-03T23:54:33.052Z,99966.48
2022-11-03T23:55:33.686Z,99966.41
2022-11-03T23:56:33.320Z,99966.35
2022-11-03T23:57:35.206Z,99966.45
2022-11-03T23:58:35.444Z,99966.20
2022-11-03T23:59:35.169Z,99965.94
